• Join FlightAware (Why Join?)
  • Login
  • US Flag 
10:27PM EDT


 

Airport Tracker/Info


-or-


 

Live Flight TrackerFlight Track Log ✈ N1906H ✈ 07-Jul-2013 ✈ KIRK - KPRO

Flight Track Log - Related Links

Times and Time Zones

All times are in EDT time to prevent confusion due to time zone crossing. See the N1906H flight status page for this flight to view local times or setup timezone preferences in your user account.

Time Position Orientation Groundspeed Altitude Reporting Facility
EDT Latitude Longitude Course Direction KTS MPH feet Rate Location/Type
01:37PM 40.1550 -92.5722 323° Northwest 120 138 4,200  Level Minneapolis Center
01:38PM 40.1819 -92.5994 322° Northwest 121 139 4,700 480 Climbing Minneapolis Center
01:39PM 40.2114 -92.6275 324° Northwest 125 144 5,200 540 Climbing Chicago Center
01:40PM 40.2428 -92.6633 319° Northwest 125 144 5,900 360 Climbing Kansas City Center
01:41PM 40.2717 -92.6897 325° Northwest 125 144 6,100  Climbing Kansas City Center
01:42PM 40.2466 -92.6799 323° Northwest  Level FlightAware Approximate
01:42PM 40.3069 -92.7208 326° Northwest 143 165 6,000  Level Kansas City Center
01:43PM 40.3422 -92.7514 327° Northwest 150 173 6,000  Level Kansas City Center
01:44PM 40.3778 -92.7811 328° Northwest 151 174 6,000  Level Kansas City Center
01:45PM 40.4189 -92.8194 325° Northwest 152 175 6,100  Climbing Kansas City Center
01:46PM 40.4533 -92.8517 325° Northwest 152 175 6,100  Level Kansas City Center
01:47PM 40.4903 -92.8797 330° Northwest 153 176 6,100  Level Kansas City Center
01:48PM 40.5247 -92.9094 327° Northwest 152 175 6,100 -60 Level Kansas City Center
01:49PM 40.5589 -92.9431 323° Northwest 153 176 6,000  Descending Kansas City Center
01:50PM 40.5992 -92.9839 322° Northwest 153 176 6,100  Climbing Kansas City Center
01:51PM 40.6264 -93.0072 327° Northwest 151 174 6,000  Descending Chicago Center
01:52PM 40.6689 -93.0428 328° Northwest 150 173 6,100  Climbing Chicago Center
01:53PM 40.7033 -93.0750 325° Northwest 152 175 6,100 -60 Level Chicago Center
01:54PM 40.7397 -93.1042 329° Northwest 153 176 6,000 -60 Descending Chicago Center
01:55PM 40.7753 -93.1344 327° Northwest 153 176 6,000  Level Chicago Center
01:56PM 40.8086 -93.1644 326° Northwest 151 174 6,100  Climbing Chicago Center
01:57PM 40.8489 -93.2022 325° Northwest 148 170 6,000  Descending Chicago Center
01:58PM 40.8842 -93.2328 327° Northwest 151 174 6,100  Climbing Chicago Center
01:59PM 40.9208 -93.2608 330° Northwest 152 175 6,000 -60 Descending Chicago Center
02:01PM 40.9558 -93.2914 327° Northwest 152 175 6,000  Level Chicago Center
02:02PM 40.9872 -93.3231 323° Northwest 148 170 6,100  Climbing Chicago Center
02:03PM 41.0250 -93.3614 323° Northwest 145 167 6,000  Descending Chicago Center
02:04PM 41.0617 -93.3858 333° Northwest 146 168 6,100  Climbing Chicago Center
02:05PM 41.0964 -93.4164 326° Northwest 148 170 6,100 -60 Level Chicago Center
02:06PM 41.1275 -93.4486 322° Northwest 146 168 6,000 -60 Descending Chicago Center
02:07PM 41.1656 -93.4889 321° Northwest 147 169 6,000  Level Chicago Center
02:08PM 41.2000 -93.5183 327° Northwest 147 169 6,000  Level Chicago Center
02:09PM 41.2319 -93.5497 324° Northwest 146 168 6,000  Level Chicago Center
02:10PM 41.2597 -93.5872 315° West 144 166 6,000  Level Chicago Center
02:11PM 41.2953 -93.6172 328° Northwest 148 170 6,000  Level Chicago Center
02:12PM 41.3358 -93.6564 324° Northwest 150 173 6,000  Level Chicago Center
02:13PM 41.3817 -93.6925 329° Northwest 152 175 6,000  Level Minneapolis Center
02:14PM 41.3919 -93.7153 301° West 155 178 6,000  Level Minneapolis Center
02:14PM 41.4172 -93.7308 335° Northwest 153 176 6,000  Level Minneapolis Center
02:16PM 41.4636 -93.7814 321° Northwest 151 174 6,100 60 Climbing Minneapolis Center